CheckWX is a tool to help pilots better visualize weather data.  It is not intended as a substitute for an official pre-flight weather briefing.

09:58:23 UTC

EGYH METAR
Holbeach Airport
United Kingdom
Current

1 hour ago

EGYH 210850Z 26005KT 9999 FEW025 BKN040 11/09 Q1032 BLU
Observed
Mar-21 @ 08:50 UTC
Wind
  • 260° at 5 KTS
Visibility
10,000+ meters
Flight Rules
VFR
Cloud Levels
  • Few at 2,500' AGL
  • Broken at 4,000' AGL
Temperature
11°C / 52°F
Dewpoint
C / 48°F
Humidity
88%
Altimeter
30.47" Hg
Pressure
1031.91 hPa
Previous

18 hours ago

EGYH 201550Z 21015KT CAVOK 15/10 Q1030 BLU
Observed
Mar-20 @ 15:50 UTC
Wind
  • 210° at 15 KTS
Visibility
10,000+ meters
Flight Rules
VFR
Cloud Levels
  • Clear skies
Temperature
15°C / 59°F
Dewpoint
10°C / 50°F
Humidity
72%
Altimeter
30.41" Hg
Pressure
1029.91 hPa
Previous

19 hours ago

EGYH 201450Z 21012KT CAVOK 15/10 Q1030 BLU
Observed
Mar-20 @ 14:50 UTC
Wind
  • 210° at 12 KTS
Visibility
10,000+ meters
Flight Rules
VFR
Cloud Levels
  • Clear skies
Temperature
15°C / 59°F
Dewpoint
10°C / 50°F
Humidity
72%
Altimeter
30.41" Hg
Pressure
1029.91 hPa